Brimley, MI

6:34 PM EST on November 28, 2014 (GMT -0500)
BMCC Lake Superior | Change Station
CLOSE
Current Station
Personal Weather Station
Location: Brimley, MI
Elevation: 645 ft
Nearby Weather Stations

Elev 645 ft 46.45 °N, 84.61 °W | Updated 6 seconds ago

Snow
Snow
18.3 °F
Feels Like 18 °F
N
2.8
Wind Variable Wind from SE
Gusts 15.4 mph

Today
High -- | Low -- °F
--% Chance of Precip.
Yesterday
High -- | Low -- °F
Precip. -- in
7:57 AM 4:54 PM
Waxing Crescent, 45% visible
Pressure 30.10 in
Visibility 7.0 miles
Clouds Overcast 3800 ft
Windchill 18 °F
Dew Point 16 °F
Humidity 90%
Rainfall 0.00 in
Snow Depth Not available.
UV 0 out of 12
Pollen .10 out of 12
Air Quality Not available.
Flu Activity Not available.
METAR KANJ 282255Z AUTO 10004KT 7SM -SN OVC038 M08/M11 A3005 RMK AO2 SLP191 P0000 T10781106

More Conditions Fewer Conditions

Pressure 30.10 in
Visibility 7.0 miles
Clouds Overcast 3800 ft
Windchill 18 °F
Dew Point 16 °F
Humidity 90%
Rainfall 0.00 in
Snow Depth Not available.
UV 0 out of 12
Pollen .10 out of 12
Air Quality Not available.
Flu Activity Not available.
METAR KANJ 282255Z AUTO 10004KT 7SM -SN OVC038 M08/M11 A3005 RMK AO2 SLP191 P0000 T10781106

More Conditions Fewer Conditions

Nowcast | as of 6:00 PM EST on November 28, 2014

At 7 PM...cloudy. Chance of snow. Temperature 21. Southeast winds 6 mph. At 9 PM...cloudy. Chance of snow. Temperature 21. Southeast winds 7 mph. At 11 PM...cloudy. Chance of snow. Temperature 22. Southeast winds 7 mph. At 1 am...cloudy. Chance of snow. Temperature 23. Southeast winds 8 mph.

×

10-Day Weather Forecast

Almanac

Astronomy

Nov. 28, 2014 Rise Set
Actual Time
Civil Twilight
Nautical Twilight
Astronomical Twilight
Moon
Length of Visible Light
Length of Day
Tomorrow will be .
, % of the Moon is Illuminated

Today's Extremes

State Highs State Lows

Community

WunderPhotos

Upload Photos

1,774,338 photos uploaded!

WunderBlogs® & News

Nearby

Air Quality

  Air Quality AQ Index Pollutant
Not available.

Snow Depth

Station Depth Elevation

Earthquake Activity

City Distance Mag. Time & Date
Minimum magnitude displayed is 2.5.

Coastal Water Temperatures

Place Temperature

Nearby Weather Stations